Ludlow, Illinois
Current Conditions -  °F | °C
As of 12:30 AM on Tuesday 21 Oct 2014 (Local Time) from KTIP Reporting Station
Scattered Clouds Scattered Clouds  
Wind Chill: 10°   Ceiling: Unl
Heat Index: 10°   Visibility: 10mi
Dew Point:   Wind: 0mph
Humidity: 83%   Direction: NA
Pressure: 30.01"   Gusts: NA
Location:  40.39°N, 88.13°W
Report Text: KTIP 210530Z AUTO 00000KT 10SM SCT055 10/07 A3001 RMK AO2 T01000073
Loading
Personal Weather Stations






























Interactive Weather Map
Tropical Storm Tracking
New forecast layout! Learn more

10-Day Weather Forecast

Advertisements
Track Severe Weather on mobile